sensor_id;sensor_type;location;lat;lon;timestamp;pressure;altitude;pressure_sealevel;temperature;humidity
48624;BME280;34422;45.802;16.114;2022-08-21T00:00:20;99880.50;;;17.88;100.00
48624;BME280;34422;45.802;16.114;2022-08-21T00:02:55;99879.94;;;17.86;100.00
48624;BME280;34422;45.802;16.114;2022-08-21T00:05:23;99866.81;;;17.83;100.00
48624;BME280;34422;45.802;16.114;2022-08-21T00:07:51;99875.56;;;17.85;100.00
48624;BME280;34422;45.802;16.114;2022-08-21T00:10:18;99871.75;;;17.86;100.00
48624;BME280;34422;45.802;16.114;2022-08-21T00:12:46;99878.00;;;17.81;100.00
48624;BME280;34422;45.802;16.114;2022-08-21T00:15:19;99881.28;;;17.78;100.00
48624;BME280;34422;45.802;16.114;2022-08-21T00:17:47;99875.81;;;17.78;100.00
48624;BME280;34422;45.802;16.114;2022-08-21T00:20:15;99867.91;;;17.77;100.00
48624;BME280;34422;45.802;16.114;2022-08-21T00:22:42;99876.88;;;17.67;100.00
48624;BME280;34422;45.802;16.114;2022-08-21T00:25:10;99874.69;;;17.69;100.00
48624;BME280;34422;45.802;16.114;2022-08-21T00:27:36;99864.56;;;17.69;100.00
48624;BME280;34422;45.802;16.114;2022-08-21T00:30:05;99863.44;;;17.60;100.00
48624;BME280;34422;45.802;16.114;2022-08-21T00:32:33;99878.19;;;17.59;100.00
48624;BME280;34422;45.802;16.114;2022-08-21T00:35:03;99866.13;;;17.55;100.00
48624;BME280;34422;45.802;16.114;2022-08-21T00:37:30;99860.41;;;17.57;100.00
48624;BME280;34422;45.802;16.114;2022-08-21T00:39:57;99862.59;;;17.60;100.00
48624;BME280;34422;45.802;16.114;2022-08-21T00:42:24;99858.78;;;17.61;100.00
48624;BME280;34422;45.802;16.114;2022-08-21T00:44:51;99857.69;;;17.62;100.00
48624;BME280;34422;45.802;16.114;2022-08-21T00:47:18;99858.22;;;17.59;100.00
48624;BME280;34422;45.802;16.114;2022-08-21T00:49:45;99854.13;;;17.61;100.00
48624;BME280;34422;45.802;16.114;2022-08-21T00:52:27;99851.66;;;17.60;100.00
48624;BME280;34422;45.802;16.114;2022-08-21T00:54:56;99847.84;;;17.61;100.00
48624;BME280;34422;45.802;16.114;2022-08-21T00:57:30;99844.53;;;17.59;100.00
48624;BME280;34422;45.802;16.114;2022-08-21T01:00:00;99846.19;;;17.60;100.00
48624;BME280;34422;45.802;16.114;2022-08-21T01:02:27;99846.47;;;17.58;100.00
48624;BME280;34422;45.802;16.114;2022-08-21T01:04:54;99849.19;;;17.58;100.00
48624;BME280;34422;45.802;16.114;2022-08-21T01:07:21;99848.63;;;17.56;100.00
48624;BME280;34422;45.802;16.114;2022-08-21T01:09:48;99842.59;;;17.54;100.00
48624;BME280;34422;45.802;16.114;2022-08-21T01:12:15;99841.22;;;17.52;100.00
48624;BME280;34422;45.802;16.114;2022-08-21T01:14:42;99834.41;;;17.49;100.00
48624;BME280;34422;45.802;16.114;2022-08-21T01:17:11;99834.09;;;17.51;100.00
48624;BME280;34422;45.802;16.114;2022-08-21T01:19:39;99833.00;;;17.52;100.00
48624;BME280;34422;45.802;16.114;2022-08-21T01:22:07;99827.53;;;17.52;100.00
48624;BME280;34422;45.802;16.114;2022-08-21T01:24:34;99838.22;;;17.53;100.00
48624;BME280;34422;45.802;16.114;2022-08-21T01:27:01;99839.31;;;17.52;100.00
48624;BME280;34422;45.802;16.114;2022-08-21T01:29:50;99836.88;;;17.56;100.00
48624;BME280;34422;45.802;16.114;2022-08-21T01:32:20;99836.59;;;17.57;100.00
48624;BME280;34422;45.802;16.114;2022-08-21T01:34:49;99836.34;;;17.59;100.00
48624;BME280;34422;45.802;16.114;2022-08-21T01:37:17;99838.25;;;17.58;100.00
48624;BME280;34422;45.802;16.114;2022-08-21T01:39:46;99834.13;;;17.56;100.00
48624;BME280;34422;45.802;16.114;2022-08-21T01:42:14;99834.97;;;17.56;100.00
48624;BME280;34422;45.802;16.114;2022-08-21T01:44:41;99830.88;;;17.59;100.00
48624;BME280;34422;45.802;16.114;2022-08-21T01:47:10;99836.91;;;17.61;100.00
48624;BME280;34422;45.802;16.114;2022-08-21T01:49:39;99834.19;;;17.66;100.00
48624;BME280;34422;45.802;16.114;2022-08-21T01:52:06;99827.91;;;17.70;100.00
48624;BME280;34422;45.802;16.114;2022-08-21T01:54:33;99827.13;;;17.75;100.00
48624;BME280;34422;45.802;16.114;2022-08-21T01:57:00;99821.09;;;17.73;100.00
48624;BME280;34422;45.802;16.114;2022-08-21T01:59:27;99819.44;;;17.77;100.00
48624;BME280;34422;45.802;16.114;2022-08-21T02:01:54;99821.91;;;17.79;100.00
48624;BME280;34422;45.802;16.114;2022-08-21T02:04:21;99823.28;;;17.81;100.00
48624;BME280;34422;45.802;16.114;2022-08-21T02:06:49;99817.81;;;17.86;100.00
48624;BME280;34422;45.802;16.114;2022-08-21T02:09:15;99820.84;;;17.90;100.00
48624;BME280;34422;45.802;16.114;2022-08-21T02:11:43;99821.66;;;17.95;100.00
48624;BME280;34422;45.802;16.114;2022-08-21T02:14:11;99820.31;;;17.98;100.00
48624;BME280;34422;45.802;16.114;2022-08-21T02:16:41;99807.72;;;17.97;100.00
48624;BME280;34422;45.802;16.114;2022-08-21T02:19:09;99809.88;;;17.95;100.00
48624;BME280;34422;45.802;16.114;2022-08-21T02:21:36;99807.41;;;17.93;100.00
48624;BME280;34422;45.802;16.114;2022-08-21T02:24:03;99815.06;;;17.91;100.00
48624;BME280;34422;45.802;16.114;2022-08-21T02:26:30;99821.09;;;17.93;100.00
48624;BME280;34422;45.802;16.114;2022-08-21T02:28:57;99819.19;;;17.94;100.00
48624;BME280;34422;45.802;16.114;2022-08-21T02:31:23;99820.56;;;17.91;100.00
48624;BME280;34422;45.802;16.114;2022-08-21T02:33:51;99813.47;;;17.90;100.00
48624;BME280;34422;45.802;16.114;2022-08-21T02:36:18;99815.91;;;17.92;100.00
48624;BME280;34422;45.802;16.114;2022-08-21T02:38:45;99809.59;;;17.91;100.00
48624;BME280;34422;45.802;16.114;2022-08-21T02:41:17;99796.22;;;17.90;100.00
48624;BME280;34422;45.802;16.114;2022-08-21T02:43:44;99794.84;;;17.87;100.00
48624;BME280;34422;45.802;16.114;2022-08-21T02:46:13;99810.72;;;17.85;100.00
48624;BME280;34422;45.802;16.114;2022-08-21T02:48:41;99811.25;;;17.87;100.00
48624;BME280;34422;45.802;16.114;2022-08-21T02:51:13;99816.19;;;17.85;100.00
48624;BME280;34422;45.802;16.114;2022-08-21T02:53:41;99815.91;;;17.87;100.00
48624;BME280;34422;45.802;16.114;2022-08-21T02:56:10;99810.72;;;17.85;100.00
48624;BME280;34422;45.802;16.114;2022-08-21T02:58:43;99811.50;;;17.81;100.00
48624;BME280;34422;45.802;16.114;2022-08-21T03:01:11;99809.59;;;17.76;100.00
48624;BME280;34422;45.802;16.114;2022-08-21T03:03:40;99806.03;;;17.70;100.00
48624;BME280;34422;45.802;16.114;2022-08-21T03:06:09;99807.94;;;17.70;100.00
48624;BME280;34422;45.802;16.114;2022-08-21T03:08:36;99808.47;;;17.67;100.00
48624;BME280;34422;45.802;16.114;2022-08-21T03:11:04;99810.38;;;17.66;100.00
48624;BME280;34422;45.802;16.114;2022-08-21T03:13:31;99807.66;;;17.66;100.00
48624;BME280;34422;45.802;16.114;2022-08-21T03:15:59;99810.66;;;17.65;100.00
48624;BME280;34422;45.802;16.114;2022-08-21T03:18:25;99811.19;;;17.62;100.00
48624;BME280;34422;45.802;16.114;2022-08-21T03:20:52;99805.41;;;17.58;100.00
48624;BME280;34422;45.802;16.114;2022-08-21T03:23:19;99806.78;;;17.56;100.00
48624;BME280;34422;45.802;16.114;2022-08-21T03:25:46;99814.41;;;17.54;100.00
48624;BME280;34422;45.802;16.114;2022-08-21T03:28:17;99811.69;;;17.49;100.00
48624;BME280;34422;45.802;16.114;2022-08-21T03:30:45;99813.31;;;17.45;100.00
48624;BME280;34422;45.802;16.114;2022-08-21T03:33:13;99817.09;;;17.38;100.00
48624;BME280;34422;45.802;16.114;2022-08-21T03:35:42;99821.50;;;17.34;100.00
48624;BME280;34422;45.802;16.114;2022-08-21T03:38:09;99813.25;;;17.29;100.00
48624;BME280;34422;45.802;16.114;2022-08-21T03:40:36;99805.06;;;17.29;100.00
48624;BME280;34422;45.802;16.114;2022-08-21T03:43:02;99812.44;;;17.29;100.00
48624;BME280;34422;45.802;16.114;2022-08-21T03:45:29;99813.25;;;17.29;100.00
48624;BME280;34422;45.802;16.114;2022-08-21T03:47:59;99815.44;;;17.27;100.00
48624;BME280;34422;45.802;16.114;2022-08-21T03:50:30;99822.53;;;17.28;100.00
48624;BME280;34422;45.802;16.114;2022-08-21T03:52:59;99807.78;;;17.29;100.00
48624;BME280;34422;45.802;16.114;2022-08-21T03:55:26;99818.19;;;17.32;100.00
48624;BME280;34422;45.802;16.114;2022-08-21T03:57:53;99818.19;;;17.32;100.00
48624;BME280;34422;45.802;16.114;2022-08-21T04:00:21;99808.91;;;17.33;100.00
48624;BME280;34422;45.802;16.114;2022-08-21T04:02:48;99808.91;;;17.38;100.00
48624;BME280;34422;45.802;16.114;2022-08-21T04:05:16;99818.22;;;17.42;100.00
48624;BME280;34422;45.802;16.114;2022-08-21T04:08:04;99809.50;;;17.46;100.00
48624;BME280;34422;45.802;16.114;2022-08-21T04:10:34;99811.09;;;17.41;100.00
48624;BME280;34422;45.802;16.114;2022-08-21T04:13:03;99808.63;;;17.40;100.00
48624;BME280;34422;45.802;16.114;2022-08-21T04:15:30;99815.22;;;17.44;100.00
48624;BME280;34422;45.802;16.114;2022-08-21T04:17:57;99816.88;;;17.45;100.00
48624;BME280;34422;45.802;16.114;2022-08-21T04:20:24;99818.22;;;17.42;100.00
48624;BME280;34422;45.802;16.114;2022-08-21T04:22:51;99815.75;;;17.41;100.00
48624;BME280;34422;45.802;16.114;2022-08-21T04:25:20;99815.47;;;17.37;100.00
48624;BME280;34422;45.802;16.114;2022-08-21T04:27:47;99809.16;;;17.32;100.00
48624;BME280;34422;45.802;16.114;2022-08-21T04:30:15;99814.63;;;17.37;100.00
48624;BME280;34422;45.802;16.114;2022-08-21T04:32:47;99818.75;;;17.39;100.00
48624;BME280;34422;45.802;16.114;2022-08-21T04:35:15;99825.88;;;17.40;100.00
48624;BME280;34422;45.802;16.114;2022-08-21T04:37:42;99832.97;;;17.36;100.00
48624;BME280;34422;45.802;16.114;2022-08-21T04:40:11;99822.03;;;17.36;100.00
48624;BME280;34422;45.802;16.114;2022-08-21T04:42:48;99837.09;;;17.44;100.00
48624;BME280;34422;45.802;16.114;2022-08-21T04:45:19;99843.69;;;17.48;100.00
48624;BME280;34422;45.802;16.114;2022-08-21T04:47:52;99846.69;;;17.52;100.00
48624;BME280;34422;45.802;16.114;2022-08-21T04:50:22;99848.38;;;17.58;100.00
48624;BME280;34422;45.802;16.114;2022-08-21T04:52:51;99841.56;;;17.65;100.00
48624;BME280;34422;45.802;16.114;2022-08-21T04:55:18;99849.25;;;17.68;100.00
48624;BME280;34422;45.802;16.114;2022-08-21T04:57:46;99852.28;;;17.72;100.00
48624;BME280;34422;45.802;16.114;2022-08-21T05:00:14;99852.00;;;17.73;100.00
48624;BME280;34422;45.802;16.114;2022-08-21T05:02:41;99853.91;;;17.78;100.00
48624;BME280;34422;45.802;16.114;2022-08-21T05:05:08;99844.09;;;17.82;100.00
48624;BME280;34422;45.802;16.114;2022-08-21T05:07:35;99849.56;;;17.87;100.00
48624;BME280;34422;45.802;16.114;2022-08-21T05:10:02;99853.69;;;17.85;100.00
48624;BME280;34422;45.802;16.114;2022-08-21T05:12:31;99850.38;;;17.83;100.00
48624;BME280;34422;45.802;16.114;2022-08-21T05:14:58;99854.22;;;17.87;100.00
48624;BME280;34422;45.802;16.114;2022-08-21T05:17:25;99850.41;;;17.88;100.00
48624;BME280;34422;45.802;16.114;2022-08-21T05:19:52;99849.03;;;17.95;100.00
48624;BME280;34422;45.802;16.114;2022-08-21T05:22:21;99850.69;;;17.96;100.00
48624;BME280;34422;45.802;16.114;2022-08-21T05:24:48;99854.50;;;17.95;100.00
48624;BME280;34422;45.802;16.114;2022-08-21T05:27:14;99855.63;;;17.99;100.00
48624;BME280;34422;45.802;16.114;2022-08-21T05:29:42;99857.25;;;18.00;100.00
48624;BME280;34422;45.802;16.114;2022-08-21T05:32:10;99853.97;;;18.08;100.00
48624;BME280;34422;45.802;16.114;2022-08-21T05:34:37;99855.06;;;18.07;100.00
48624;BME280;34422;45.802;16.114;2022-08-21T05:37:05;99856.16;;;18.06;100.00
48624;BME280;34422;45.802;16.114;2022-08-21T05:39:32;99857.84;;;18.18;100.00
48624;BME280;34422;45.802;16.114;2022-08-21T05:42:00;99845.25;;;18.27;100.00
48624;BME280;34422;45.802;16.114;2022-08-21T05:44:26;99848.53;;;18.34;100.00
48624;BME280;34422;45.802;16.114;2022-08-21T05:46:53;99840.31;;;18.39;100.00
48624;BME280;34422;45.802;16.114;2022-08-21T05:49:20;99847.41;;;18.45;100.00
48624;BME280;34422;45.802;16.114;2022-08-21T05:51:46;99842.50;;;18.52;100.00
48624;BME280;34422;45.802;16.114;2022-08-21T05:54:13;99838.13;;;18.61;100.00
48624;BME280;34422;45.802;16.114;2022-08-21T05:56:40;99852.38;;;18.78;100.00
48624;BME280;34422;45.802;16.114;2022-08-21T05:59:10;99843.56;;;18.97;100.00
48624;BME280;34422;45.802;16.114;2022-08-21T06:01:37;99851.13;;;19.30;100.00
48624;BME280;34422;45.802;16.114;2022-08-21T06:04:04;99851.06;;;19.45;100.00
48624;BME280;34422;45.802;16.114;2022-08-21T06:06:31;99850.78;;;19.47;100.00
48624;BME280;34422;45.802;16.114;2022-08-21T06:08:58;99850.50;;;19.59;100.00
48624;BME280;34422;45.802;16.114;2022-08-21T06:11:25;99850.25;;;19.99;100.00
48624;BME280;34422;45.802;16.114;2022-08-21T06:13:52;99855.66;;;20.09;100.00
48624;BME280;34422;45.802;16.114;2022-08-21T06:16:19;99856.44;;;20.20;100.00
48624;BME280;34422;45.802;16.114;2022-08-21T06:18:45;99857.50;;;20.63;100.00
48624;BME280;34422;45.802;16.114;2022-08-21T06:21:12;99861.22;;;20.43;100.00
48624;BME280;34422;45.802;16.114;2022-08-21T06:23:40;99853.78;;;20.49;100.00
48624;BME280;34422;45.802;16.114;2022-08-21T06:26:07;99866.88;;;20.57;100.00
48624;BME280;34422;45.802;16.114;2022-08-21T06:28:35;99872.94;;;20.59;100.00
48624;BME280;34422;45.802;16.114;2022-08-21T06:31:14;99862.00;;;20.78;100.00
48624;BME280;34422;45.802;16.114;2022-08-21T06:33:40;99860.13;;;21.02;100.00
48624;BME280;34422;45.802;16.114;2022-08-21T06:36:09;99862.44;;;21.19;100.00
48624;BME280;34422;45.802;16.114;2022-08-21T06:38:36;99867.47;;;21.36;100.00
48624;BME280;34422;45.802;16.114;2022-08-21T06:41:04;99873.47;;;21.43;100.00
48624;BME280;34422;45.802;16.114;2022-08-21T06:43:30;99869.25;;;20.98;100.00
48624;BME280;34422;45.802;16.114;2022-08-21T06:45:59;99869.81;;;20.94;100.00
48624;BME280;34422;45.802;16.114;2022-08-21T06:48:26;99865.44;;;20.93;100.00
48624;BME280;34422;45.802;16.114;2022-08-21T06:50:52;99870.84;;;21.04;100.00
48624;BME280;34422;45.802;16.114;2022-08-21T06:53:20;99868.09;;;21.04;100.00
48624;BME280;34422;45.802;16.114;2022-08-21T06:55:47;99865.47;;;21.17;100.00
48624;BME280;34422;45.802;16.114;2022-08-21T06:58:15;99859.06;;;21.27;100.00
48624;BME280;34422;45.802;16.114;2022-08-21T07:00:44;99863.72;;;21.50;100.00
48624;BME280;34422;45.802;16.114;2022-08-21T07:03:24;99859.72;;;21.61;100.00
48624;BME280;34422;45.802;16.114;2022-08-21T07:05:51;99868.50;;;21.63;100.00
48624;BME280;34422;45.802;16.114;2022-08-21T07:08:18;99864.97;;;21.39;100.00
48624;BME280;34422;45.802;16.114;2022-08-21T07:10:46;99872.75;;;21.56;100.00
48624;BME280;34422;45.802;16.114;2022-08-21T07:13:13;99865.78;;;21.82;100.00
48624;BME280;34422;45.802;16.114;2022-08-21T07:15:41;99863.53;;;22.08;100.00
48624;BME280;34422;45.802;16.114;2022-08-21T07:18:08;99870.56;;;22.52;100.00
48624;BME280;34422;45.802;16.114;2022-08-21T07:20:34;99872.41;;;21.81;100.00
48624;BME280;34422;45.802;16.114;2022-08-21T07:23:05;99872.22;;;22.34;100.00
48624;BME280;34422;45.802;16.114;2022-08-21T07:25:32;99876.38;;;22.31;100.00
48624;BME280;34422;45.802;16.114;2022-08-21T07:28:00;99875.28;;;22.97;100.00
48624;BME280;34422;45.802;16.114;2022-08-21T07:30:28;99880.44;;;23.45;100.00
48624;BME280;34422;45.802;16.114;2022-08-21T07:32:55;99874.13;;;23.72;100.00
48624;BME280;34422;45.802;16.114;2022-08-21T07:35:22;99872.94;;;24.36;100.00
48624;BME280;34422;45.802;16.114;2022-08-21T07:37:49;99871.56;;;23.48;100.00
48624;BME280;34422;45.802;16.114;2022-08-21T07:40:16;99872.94;;;24.36;100.00
48624;BME280;34422;45.802;16.114;2022-08-21T07:42:45;99870.25;;;24.45;100.00
48624;BME280;34422;45.802;16.114;2022-08-21T07:45:13;99861.88;;;24.36;100.00
48624;BME280;34422;45.802;16.114;2022-08-21T07:47:40;99868.28;;;24.23;100.00
48624;BME280;34422;45.802;16.114;2022-08-21T07:50:11;99867.97;;;24.11;100.00
48624;BME280;34422;45.802;16.114;2022-08-21T07:52:40;99860.16;;;25.25;98.67
48624;BME280;34422;45.802;16.114;2022-08-21T07:55:12;99862.00;;;25.38;100.00
48624;BME280;34422;45.802;16.114;2022-08-21T07:57:40;99862.28;;;25.84;94.16
48624;BME280;34422;45.802;16.114;2022-08-21T08:00:11;99861.84;;;26.51;94.09
48624;BME280;34422;45.802;16.114;2022-08-21T08:02:38;99860.72;;;27.54;83.60
48624;BME280;34422;45.802;16.114;2022-08-21T08:05:07;99857.56;;;25.68;92.05
48624;BME280;34422;45.802;16.114;2022-08-21T08:07:35;99858.75;;;25.44;95.89
48624;BME280;34422;45.802;16.114;2022-08-21T08:10:03;99854.09;;;25.62;90.98
48624;BME280;34422;45.802;16.114;2022-08-21T08:12:31;99854.34;;;26.17;88.48
48624;BME280;34422;45.802;16.114;2022-08-21T08:14:59;99850.91;;;26.20;88.25
48624;BME280;34422;45.802;16.114;2022-08-21T08:17:26;99841.75;;;26.72;87.21
48624;BME280;34422;45.802;16.114;2022-08-21T08:19:54;99841.59;;;27.23;76.79
48624;BME280;34422;45.802;16.114;2022-08-21T08:22:22;99851.63;;;28.25;69.31
48624;BME280;34422;45.802;16.114;2022-08-21T08:24:53;99841.47;;;27.79;70.62
48624;BME280;34422;45.802;16.114;2022-08-21T08:27:20;99837.88;;;27.11;72.86
48624;BME280;34422;45.802;16.114;2022-08-21T08:29:48;99840.25;;;27.30;68.97
48624;BME280;34422;45.802;16.114;2022-08-21T08:32:15;99842.56;;;27.28;71.93
48624;BME280;34422;45.802;16.114;2022-08-21T08:34:41;99836.47;;;27.72;70.14
48624;BME280;34422;45.802;16.114;2022-08-21T08:37:09;99835.22;;;28.03;70.39
48624;BME280;34422;45.802;16.114;2022-08-21T08:39:36;99845.41;;;27.78;66.97
48624;BME280;34422;45.802;16.114;2022-08-21T08:42:20;99841.84;;;28.19;65.71
48624;BME280;34422;45.802;16.114;2022-08-21T08:44:58;99837.41;;;28.18;65.94
48624;BME280;34422;45.802;16.114;2022-08-21T08:47:27;99839.94;;;27.22;65.71
48624;BME280;34422;45.802;16.114;2022-08-21T08:52:28;99827.75;;;27.06;71.54
48624;BME280;34422;45.802;16.114;2022-08-21T08:55:04;99830.53;;;27.06;67.90
48624;BME280;34422;45.802;16.114;2022-08-21T08:57:33;99823.09;;;26.81;70.07
48624;BME280;34422;45.802;16.114;2022-08-21T09:00:06;99819.81;;;26.79;69.18
48624;BME280;34422;45.802;16.114;2022-08-21T09:02:38;99826.34;;;27.00;67.85
48624;BME280;34422;45.802;16.114;2022-08-21T09:05:06;99826.72;;;26.73;72.36
48624;BME280;34422;45.802;16.114;2022-08-21T09:20:16;99826.75;;;26.55;71.56
48624;BME280;34422;45.802;16.114;2022-08-21T09:25:02;99829.38;;;26.43;62.52
48624;BME280;34422;45.802;16.114;2022-08-21T09:27:34;99814.53;;;26.48;65.43
48624;BME280;34422;45.802;16.114;2022-08-21T09:30:04;99822.66;;;26.53;68.57
48624;BME280;34422;45.802;16.114;2022-08-21T09:32:34;99820.53;;;26.59;52.30
48624;BME280;34422;45.802;16.114;2022-08-21T09:37:34;99801.91;;;26.68;58.56
48624;BME280;34422;45.802;16.114;2022-08-21T09:40:45;99801.19;;;26.33;67.16
48624;BME280;34422;45.802;16.114;2022-08-21T09:43:22;99795.59;;;26.24;71.18
48624;BME280;34422;45.802;16.114;2022-08-21T09:46:11;99807.19;;;25.74;75.11
48624;BME280;34422;45.802;16.114;2022-08-21T09:48:41;99791.38;;;26.01;78.13
48624;BME280;34422;45.802;16.114;2022-08-21T09:51:13;99797.88;;;26.13;74.99
48624;BME280;34422;45.802;16.114;2022-08-21T09:53:48;99787.66;;;25.97;74.00
48624;BME280;34422;45.802;16.114;2022-08-21T09:56:26;99788.44;;;26.14;72.53
48624;BME280;34422;45.802;16.114;2022-08-21T09:59:18;99785.41;;;26.71;70.49
48624;BME280;34422;45.802;16.114;2022-08-21T10:01:49;99778.28;;;26.53;68.82
48624;BME280;34422;45.802;16.114;2022-08-21T10:04:22;99781.44;;;25.82;68.26
48624;BME280;34422;45.802;16.114;2022-08-21T10:06:49;99781.25;;;26.22;68.40
48624;BME280;34422;45.802;16.114;2022-08-21T10:09:18;99775.38;;;26.41;63.46
48624;BME280;34422;45.802;16.114;2022-08-21T10:11:50;99775.16;;;26.63;63.16
48624;BME280;34422;45.802;16.114;2022-08-21T10:14:34;99771.47;;;26.33;61.62
48624;BME280;34422;45.802;16.114;2022-08-21T10:17:07;99771.44;;;26.42;62.60
48624;BME280;34422;45.802;16.114;2022-08-21T10:31:03;99774.41;;;25.85;53.66
48624;BME280;34422;45.802;16.114;2022-08-21T10:33:38;99772.13;;;25.78;53.80
48624;BME280;34422;45.802;16.114;2022-08-21T10:45:06;99757.75;;;26.92;51.02
48624;BME280;34422;45.802;16.114;2022-08-21T10:47:36;99766.31;;;27.46;49.70
48624;BME280;34422;45.802;16.114;2022-08-21T10:52:46;99757.97;;;27.46;48.42
48624;BME280;34422;45.802;16.114;2022-08-21T10:55:22;99756.59;;;27.31;49.51
48624;BME280;34422;45.802;16.114;2022-08-21T11:00:27;99755.22;;;27.08;50.19
48624;BME280;34422;45.802;16.114;2022-08-21T11:03:11;99754.56;;;27.11;49.91
48624;BME280;34422;45.802;16.114;2022-08-21T11:08:12;99748.88;;;26.61;48.95
48624;BME280;34422;45.802;16.114;2022-08-21T11:10:48;99756.34;;;26.69;49.70
48624;BME280;34422;45.802;16.114;2022-08-21T11:15:49;99752.34;;;26.40;49.07
48624;BME280;34422;45.802;16.114;2022-08-21T11:18:32;99757.94;;;26.23;49.31
48624;BME280;34422;45.802;16.114;2022-08-21T11:23:42;99755.00;;;26.28;51.05
48624;BME280;34422;45.802;16.114;2022-08-21T11:26:29;99749.78;;;26.18;51.36
48624;BME280;34422;45.802;16.114;2022-08-21T11:29:29;99753.22;;;26.06;51.66
48624;BME280;34422;45.802;16.114;2022-08-21T11:32:42;99751.94;;;25.95;53.26
48624;BME280;34422;45.802;16.114;2022-08-21T11:43:39;99742.63;;;25.65;56.12
48624;BME280;34422;45.802;16.114;2022-08-21T11:51:16;99742.31;;;25.75;55.72
48624;BME280;34422;45.802;16.114;2022-08-21T11:53:49;99746.88;;;25.89;55.63
48624;BME280;34422;45.802;16.114;2022-08-21T11:56:23;99736.13;;;25.96;55.64
48624;BME280;34422;45.802;16.114;2022-08-21T11:58:55;99740.31;;;26.02;56.29
48624;BME280;34422;45.802;16.114;2022-08-21T12:01:43;99740.66;;;26.00;56.42
48624;BME280;34422;45.802;16.114;2022-08-21T12:06:48;99732.84;;;25.76;57.46
48624;BME280;34422;45.802;16.114;2022-08-21T12:14:49;99739.50;;;26.01;58.11
48624;BME280;34422;45.802;16.114;2022-08-21T12:17:35;99733.34;;;25.96;57.50
48624;BME280;34422;45.802;16.114;2022-08-21T12:22:54;99733.81;;;26.06;55.22
48624;BME280;34422;45.802;16.114;2022-08-21T12:25:22;99730.41;;;25.92;55.55
48624;BME280;34422;45.802;16.114;2022-08-21T12:28:06;99727.25;;;26.11;56.01
48624;BME280;34422;45.802;16.114;2022-08-21T12:30:37;99722.81;;;26.27;56.18
48624;BME280;34422;45.802;16.114;2022-08-21T12:33:35;99726.25;;;26.41;55.96
48624;BME280;34422;45.802;16.114;2022-08-21T12:36:21;99725.97;;;26.34;54.99
48624;BME280;34422;45.802;16.114;2022-08-21T12:38:59;99722.38;;;26.34;54.15
48624;BME280;34422;45.802;16.114;2022-08-21T12:41:31;99715.28;;;26.53;54.64
48624;BME280;34422;45.802;16.114;2022-08-21T12:44:12;99718.13;;;26.74;54.15
48624;BME280;34422;45.802;16.114;2022-08-21T12:46:51;99718.66;;;26.68;53.92
48624;BME280;34422;45.802;16.114;2022-08-21T12:49:52;99719.34;;;26.65;54.76
48624;BME280;34422;45.802;16.114;2022-08-21T12:52:24;99719.03;;;26.58;53.86
48624;BME280;34422;45.802;16.114;2022-08-21T12:54:55;99717.09;;;26.49;54.91
48624;BME280;34422;45.802;16.114;2022-08-21T12:57:25;99714.22;;;26.37;56.11
48624;BME280;34422;45.802;16.114;2022-08-21T12:59:55;99709.31;;;26.17;57.11
48624;BME280;34422;45.802;16.114;2022-08-21T13:02:26;99711.31;;;25.91;56.84
48624;BME280;34422;45.802;16.114;2022-08-21T13:04:55;99714.59;;;25.75;58.66
48624;BME280;34422;45.802;16.114;2022-08-21T13:07:29;99714.94;;;25.65;58.41
48624;BME280;34422;45.802;16.114;2022-08-21T13:10:03;99722.06;;;25.49;58.03
48624;BME280;34422;45.802;16.114;2022-08-21T13:12:31;99723.34;;;25.43;59.44
48624;BME280;34422;45.802;16.114;2022-08-21T13:15:02;99721.22;;;25.31;62.94
48624;BME280;34422;45.802;16.114;2022-08-21T13:17:34;99725.56;;;25.06;65.66
48624;BME280;34422;45.802;16.114;2022-08-21T13:20:07;99713.47;;;24.94;64.73
48624;BME280;34422;45.802;16.114;2022-08-21T13:22:41;99711.38;;;24.99;69.41
48624;BME280;34422;45.802;16.114;2022-08-21T13:25:14;99706.31;;;25.01;72.00
48624;BME280;34422;45.802;16.114;2022-08-21T13:27:44;99716.75;;;25.04;73.07
48624;BME280;34422;45.802;16.114;2022-08-21T13:30:19;99710.91;;;25.06;72.54
48624;BME280;34422;45.802;16.114;2022-08-21T13:32:55;99708.31;;;25.09;72.32
48624;BME280;34422;45.802;16.114;2022-08-21T13:35:27;99707.38;;;25.40;73.59
48624;BME280;34422;45.802;16.114;2022-08-21T13:37:54;99701.66;;;25.45;74.62
48624;BME280;34422;45.802;16.114;2022-08-21T13:40:32;99708.88;;;25.63;72.84
48624;BME280;34422;45.802;16.114;2022-08-21T13:43:12;99709.53;;;25.77;70.59
48624;BME280;34422;45.802;16.114;2022-08-21T13:45:44;99706.75;;;25.95;62.78
48624;BME280;34422;45.802;16.114;2022-08-21T13:48:11;99712.28;;;26.03;58.02
48624;BME280;34422;45.802;16.114;2022-08-21T13:50:38;99716.34;;;26.06;56.36
48624;BME280;34422;45.802;16.114;2022-08-21T13:53:23;99712.59;;;26.02;54.32
48624;BME280;34422;45.802;16.114;2022-08-21T13:55:50;99708.19;;;26.01;53.29
48624;BME280;34422;45.802;16.114;2022-08-21T13:58:30;99703.31;;;26.06;54.58
48624;BME280;34422;45.802;16.114;2022-08-21T14:00:58;99714.72;;;26.05;55.60
48624;BME280;34422;45.802;16.114;2022-08-21T14:03:46;99704.00;;;25.77;53.40
48624;BME280;34422;45.802;16.114;2022-08-21T14:06:19;99704.16;;;25.64;52.97
48624;BME280;34422;45.802;16.114;2022-08-21T14:09:03;99706.25;;;25.41;52.41
48624;BME280;34422;45.802;16.114;2022-08-21T14:11:35;99697.13;;;25.40;53.49
48624;BME280;34422;45.802;16.114;2022-08-21T14:14:07;99711.75;;;25.32;52.95
48624;BME280;34422;45.802;16.114;2022-08-21T14:16:56;99707.03;;;25.24;53.55